This is the latest recevied weather packets stored in our database for station/object KG5MMT-15. If no packets are shown the sender has not sent any weather packets the latest 1 day(s).
| Time | Temp. | Humidity | Pressure | Rain* | Wind** | Luminosity | Snow |
|---|---|---|---|---|---|---|---|
| 1836274755 | 12.78° C | 80% | 0 hPa | 0 mm | 0 m/s | - | - |
| 1836274455 | 12.78° C | 79% | 0 hPa | 0 mm | 0 m/s | - | - |
| 1836274305 | 12.78° C | 79% | 0 hPa | 0 mm | 0 m/s | - | - |
| 1836274155 | 12.78° C | 78% | 0 hPa | 0 mm | 0 m/s | - | - |
| 1778035036 | 10° C | 58% | 0 hPa | 0 mm | 1.79 m/s, 306° | - | - |
| 1778034736 | 10.56° C | 56% | 0 hPa | 0 mm | 3.13 m/s, 313° | - | - |
| 1778034436 | 10.56° C | 53% | 0 hPa | 0 mm | 1.79 m/s, 284° | - | - |
| 1778034136 | 11.11° C | 51% | 0 hPa | 0 mm | 1.34 m/s, 2° | - | - |
| 1778033836 | 11.11° C | 49% | 0 hPa | 0 mm | 3.13 m/s, 313° | - | - |
| 1778033536 | 11.67° C | 49% | 0 hPa | 0 mm | 3.58 m/s, 254° | - | - |
| 1778033236 | 11.67° C | 48% | 0 hPa | 0 mm | 3.58 m/s, 284° | - | - |
| 1778032936 | 11.67° C | 46% | 0 hPa | 0 mm | 2.68 m/s, 333° | - | - |
| 1778032636 | 11.67° C | 46% | 0 hPa | 0 mm | 1.79 m/s, 355° | - | - |
| 1778032336 | 12.22° C | 46% | 0 hPa | 0 mm | 0.45 m/s, 87° | - | - |
| 1778032036 | 12.22° C | 46% | 0 hPa | 0 mm | 1.34 m/s, 223° | - | - |
| 1778031736 | 12.22° C | 45% | 0 hPa | 0 mm | 0.89 m/s, 306° | - | - |
| 1778031436 | 12.22° C | 45% | 0 hPa | 0 mm | 1.79 m/s, 268° | - | - |
| 1778031136 | 12.22° C | 44% | 0 hPa | 0 mm | 3.13 m/s, 239° | - | - |
| 1778030836 | 12.22° C | 44% | 0 hPa | 0 mm | 0 m/s | - | - |
| 1778030536 | 12.22° C | 44% | 0 hPa | 0 mm | 0.45 m/s, 106° | - | - |
| 1778030236 | 12.22° C | 45% | 0 hPa | 0 mm | 0 m/s | - | - |
| 1778029936 | 12.78° C | 45% | 0 hPa | 0 mm | 0 m/s | - | - |
| 1778029636 | 12.22° C | 46% | 0 hPa | 0 mm | 1.79 m/s, 343° | - | - |
| 1778029336 | 12.22° C | 47% | 0 hPa | 0 mm | 1.34 m/s, 338° | - | - |
| 1778029036 | 12.22° C | 47% | 0 hPa | 0 mm | 0.45 m/s, 278° | - | - |
* Rain latest hour (hover to see other rain measurements)
** Current wind speed in m/s (hover to see current wind gust speed)